Time;durP1;ratioP1;P1;durP2;ratioP2;P2;SDS_P1;SDS_P2;PMS_P1;PMS_P2;Temp;Humidity;BMP_temperature;BMP_pressure;BME280_temperature;BME280_humidity;BME280_pressure;Samples;Min_cycle;Max_cycle;Signal;HPM_P1;HPM_P2
2022/07/23 00:00:29;;;;;;;8.15;4.00;;;15.90;99.90;;;;;;5053959;28;20306;-92
2022/07/23 00:02:55;;;;;;;7.07;3.13;;;15.90;99.90;;;;;;5070638;28;20430;-91
2022/07/23 00:05:21;;;;;;;8.07;3.90;;;15.90;99.90;;;;;;5070506;28;20489;-91
2022/07/23 00:07:46;;;;;;;7.65;4.13;;;15.80;99.90;;;;;;5071818;28;20467;-91
2022/07/23 00:10:12;;;;;;;10.68;4.07;;;15.90;99.90;;;;;;5076795;28;20082;-90
2022/07/23 00:12:38;;;;;;;8.25;2.92;;;15.80;99.90;;;;;;5061038;28;20048;-91
2022/07/23 00:15:05;;;;;;;8.88;3.85;;;15.80;99.90;;;;;;5077108;28;20040;-90
2022/07/23 00:17:31;;;;;;;7.28;3.80;;;15.80;99.90;;;;;;5077218;28;20055;-90
2022/07/23 00:19:57;;;;;;;7.90;3.80;;;15.80;99.90;;;;;;5093692;28;20052;-91
2022/07/23 00:22:23;;;;;;;8.75;3.20;;;15.70;99.90;;;;;;5060454;28;20402;-91
2022/07/23 00:24:48;;;;;;;8.77;3.90;;;15.70;99.90;;;;;;5077005;28;20409;-91
2022/07/23 00:27:14;;;;;;;7.85;3.58;;;15.70;99.90;;;;;;5078583;28;20064;-90
2022/07/23 00:29:39;;;;;;;6.32;3.10;;;15.60;99.90;;;;;;5076855;28;20037;-91
2022/07/23 00:32:05;;;;;;;8.85;3.63;;;15.60;99.90;;;;;;5060087;28;20044;-91
2022/07/23 00:34:31;;;;;;;8.07;3.15;;;15.60;99.90;;;;;;5076669;28;20048;-91
2022/07/23 00:36:57;;;;;;;7.18;2.25;;;15.60;99.90;;;;;;5076884;28;20395;-91
2022/07/23 00:39:22;;;;;;;7.03;3.28;;;15.50;99.90;;;;;;5076536;28;20047;-91
2022/07/23 00:41:49;;;;;;;6.20;2.75;;;15.50;99.90;;;;;;5076910;28;20090;-91
2022/07/23 00:44:19;;;;;;;6.00;2.60;;;15.40;99.90;;;;;;5076067;28;20589;-91
2022/07/23 00:46:48;;;;;;;6.05;3.20;;;15.30;99.90;;;;;;5060108;28;20036;-91
2022/07/23 00:49:14;;;;;;;7.32;3.60;;;15.30;99.90;;;;;;5059339;28;20496;-91
2022/07/23 00:51:40;;;;;;;9.13;3.30;;;15.30;99.90;;;;;;5076892;28;20072;-91
2022/07/23 00:54:06;;;;;;;6.90;3.40;;;15.30;99.90;;;;;;5076171;28;20058;-91
2022/07/23 00:56:32;;;;;;;7.32;2.53;;;15.30;99.90;;;;;;5076981;28;20044;-91
2022/07/23 00:59:00;;;;;;;4.40;2.03;;;15.30;99.90;;;;;;5076492;28;20124;-91
2022/07/23 01:01:26;;;;;;;6.15;2.95;;;15.30;99.90;;;;;;5076355;28;20093;-91
2022/07/23 01:03:51;;;;;;;5.88;2.90;;;15.30;99.90;;;;;;5076292;28;20041;-91
2022/07/23 01:06:17;;;;;;;5.90;2.30;;;15.20;99.90;;;;;;5076174;28;20174;-91
2022/07/23 01:08:43;;;;;;;8.82;3.80;;;15.20;99.90;;;;;;5059896;28;20045;-92
2022/07/23 01:11:08;;;;;;;8.27;4.00;;;15.20;99.90;;;;;;5076289;28;20132;-92
2022/07/23 01:13:34;;;;;;;8.35;4.63;;;15.20;99.90;;;;;;5076758;28;20043;-91
2022/07/23 01:16:00;;;;;;;8.88;4.18;;;15.20;99.90;;;;;;5059890;28;20485;-91
2022/07/23 01:18:25;;;;;;;6.47;2.20;;;15.20;99.90;;;;;;5059490;28;20036;-92
2022/07/23 01:20:51;;;;;;;7.93;4.57;;;15.20;99.90;;;;;;5072362;28;20092;-91
2022/07/23 01:23:17;;;;;;;8.52;4.15;;;15.20;99.90;;;;;;5056274;28;20032;-91
2022/07/23 01:25:52;;;;;;;9.05;5.20;;;15.20;99.90;;;;;;5072802;28;20104;-91
2022/07/23 01:28:17;;;;;;;8.43;4.55;;;15.20;99.90;;;;;;5056885;28;20185;-91
2022/07/23 01:30:43;;;;;;;8.55;4.25;;;15.20;99.90;;;;;;5072755;28;20561;-91
2022/07/23 01:33:08;;;;;;;8.38;4.50;;;15.20;99.90;;;;;;5072891;28;20059;-91
2022/07/23 01:35:34;;;;;;;9.52;4.65;;;15.30;99.90;;;;;;5073229;28;20037;-91
2022/07/23 01:37:59;;;;;;;9.63;4.72;;;15.30;99.90;;;;;;5072868;28;20045;-91
2022/07/23 01:40:25;;;;;;;8.25;3.55;;;15.30;99.90;;;;;;5072509;28;20040;-91
2022/07/23 01:42:50;;;;;;;8.20;3.70;;;15.30;99.90;;;;;;5074161;28;20120;-90
2022/07/23 01:45:16;;;;;;;8.48;3.50;;;15.30;99.90;;;;;;5072603;28;20036;-91
2022/07/23 01:47:42;;;;;;;9.38;3.75;;;15.20;99.90;;;;;;5072867;28;20132;-91
2022/07/23 01:50:07;;;;;;;9.45;4.82;;;15.20;99.90;;;;;;5072613;28;20437;-91
2022/07/23 01:52:33;;;;;;;9.05;4.35;;;15.20;99.90;;;;;;5072581;28;20036;-91
2022/07/23 01:54:59;;;;;;;7.40;3.92;;;15.20;99.90;;;;;;5072951;28;20082;-91
2022/07/23 01:57:24;;;;;;;7.60;4.13;;;15.20;99.90;;;;;;5072394;28;20044;-91
2022/07/23 01:59:50;;;;;;;8.27;3.13;;;15.20;99.90;;;;;;5072124;28;20036;-91
2022/07/23 02:02:15;;;;;;;6.85;3.30;;;15.10;99.90;;;;;;5072318;28;20131;-91
2022/07/23 02:04:41;;;;;;;7.57;3.40;;;15.10;99.90;;;;;;5072448;28;20421;-91
2022/07/23 02:07:07;;;;;;;8.00;2.78;;;15.10;99.90;;;;;;5072192;28;20098;-91
2022/07/23 02:09:33;;;;;;;7.90;4.22;;;15.00;99.90;;;;;;5072025;28;20040;-91
2022/07/23 02:11:58;;;;;;;8.15;3.50;;;15.00;99.90;;;;;;5056089;28;20040;-91
2022/07/23 02:14:25;;;;;;;6.88;3.47;;;15.00;99.90;;;;;;5055363;28;20093;-91
2022/07/23 02:16:51;;;;;;;6.75;3.38;;;15.00;99.90;;;;;;5072240;28;20040;-91
2022/07/23 02:19:17;;;;;;;6.43;2.97;;;15.00;99.90;;;;;;5072013;28;20039;-91
2022/07/23 02:21:42;;;;;;;6.55;2.28;;;14.90;99.90;;;;;;5072269;28;20047;-91
2022/07/23 02:24:08;;;;;;;7.03;3.17;;;14.80;99.90;;;;;;5071689;28;20032;-91
2022/07/23 02:26:34;;;;;;;6.68;3.15;;;14.90;99.90;;;;;;5055317;28;20036;-91
2022/07/23 02:29:01;;;;;;;6.25;3.08;;;14.90;99.90;;;;;;5072318;28;20401;-90
2022/07/23 02:31:28;;;;;;;5.13;2.22;;;14.80;99.90;;;;;;5071386;28;20036;-91
2022/07/23 02:33:55;;;;;;;3.42;1.38;;;14.80;99.90;;;;;;5055594;28;20407;-91
2022/07/23 02:36:21;;;;;;;3.10;1.50;;;14.70;99.90;;;;;;5071870;28;20037;-91
2022/07/23 02:38:46;;;;;;;2.53;1.02;;;14.70;99.90;;;;;;5071697;28;20086;-92
2022/07/23 02:41:12;;;;;;;2.97;1.42;;;14.60;99.90;;;;;;5072756;28;20101;-91
2022/07/23 02:43:38;;;;;;;4.50;1.73;;;14.60;99.90;;;;;;5088495;28;20040;-91
2022/07/23 02:46:04;;;;;;;4.22;1.70;;;14.60;99.90;;;;;;5071128;28;20032;-91
2022/07/23 02:48:30;;;;;;;5.32;1.40;;;14.60;99.90;;;;;;5071534;28;20040;-91
2022/07/23 02:50:56;;;;;;;14.65;1.83;;;14.50;99.90;;;;;;5071443;28;20028;-91
2022/07/23 02:53:22;;;;;;;5.38;1.40;;;14.50;99.90;;;;;;5071607;28;20206;-91
2022/07/23 02:55:48;;;;;;;2.45;1.17;;;14.40;99.90;;;;;;5071547;28;20098;-91
2022/07/23 02:58:14;;;;;;;4.25;1.90;;;14.40;99.90;;;;;;5055150;28;20036;-90
2022/07/23 03:00:40;;;;;;;4.80;2.15;;;14.30;99.90;;;;;;5087494;28;20036;-91
2022/07/23 03:03:06;;;;;;;4.55;1.70;;;14.40;99.90;;;;;;5054415;28;20090;-91
2022/07/23 03:05:32;;;;;;;8.40;4.60;;;14.30;99.90;;;;;;5070973;28;20044;-91
2022/07/23 03:07:57;;;;;;;9.38;5.03;;;14.30;99.90;;;;;;5071131;28;20036;-92
2022/07/23 03:10:23;;;;;;;9.35;3.25;;;14.40;99.90;;;;;;5072055;28;20609;-91
2022/07/23 03:12:48;;;;;;;8.38;4.20;;;14.20;99.90;;;;;;5071188;28;20102;-91
2022/07/23 03:15:14;;;;;;;8.35;4.55;;;14.30;99.90;;;;;;5054289;28;20044;-91
2022/07/23 03:17:40;;;;;;;8.90;4.78;;;14.30;99.90;;;;;;5070845;28;20052;-91
2022/07/23 03:20:06;;;;;;;8.23;3.03;;;14.30;99.90;;;;;;5070557;28;20036;-91
2022/07/23 03:22:31;;;;;;;6.82;2.55;;;14.20;99.90;;;;;;5071080;28;20048;-91
2022/07/23 03:24:57;;;;;;;8.25;3.58;;;14.10;99.90;;;;;;5087512;28;20039;-91
2022/07/23 03:27:28;;;;;;;9.10;4.10;;;14.10;99.90;;;;;;5070763;28;20041;-91
2022/07/23 03:29:55;;;;;;;8.63;4.30;;;14.10;99.90;;;;;;5071581;28;20047;-91
2022/07/23 03:32:22;;;;;;;8.18;3.22;;;14.10;99.90;;;;;;5054427;28;20083;-91
2022/07/23 03:34:48;;;;;;;11.90;6.03;;;14.00;99.90;;;;;;5070903;28;20550;-91
2022/07/23 03:37:13;;;;;;;35.75;3.45;;;14.10;99.90;;;;;;5070466;28;20040;-91
2022/07/23 03:39:39;;;;;;;26.90;3.28;;;14.00;99.90;;;;;;5070386;28;20391;-91
2022/07/23 03:42:05;;;;;;;2.17;1.10;;;13.90;99.90;;;;;;5069980;28;20047;-91
2022/07/23 03:44:31;;;;;;;5.40;2.05;;;13.90;99.90;;;;;;5070101;28;20066;-92
2022/07/23 03:46:57;;;;;;;5.93;2.38;;;13.90;99.90;;;;;;5054129;28;20711;-91
2022/07/23 03:49:22;;;;;;;7.55;3.92;;;13.90;99.90;;;;;;5070287;28;20072;-91
2022/07/23 03:51:48;;;;;;;6.95;4.00;;;13.80;99.90;;;;;;5070390;28;20036;-91
2022/07/23 03:54:14;;;;;;;8.38;4.07;;;13.90;99.90;;;;;;5070614;28;20044;-92
2022/07/23 03:56:39;;;;;;;5.63;2.22;;;13.90;99.90;;;;;;5070471;28;20119;-91
2022/07/23 03:59:05;;;;;;;6.22;2.17;;;13.80;99.90;;;;;;5053130;28;20045;-91
2022/07/23 04:01:31;;;;;;;7.93;4.20;;;13.70;99.90;;;;;;5070324;28;20068;-91
2022/07/23 04:03:56;;;;;;;9.85;5.22;;;13.80;99.90;;;;;;5053555;28;20037;-92
2022/07/23 04:06:22;;;;;;;13.15;4.28;;;13.80;99.90;;;;;;5070292;28;20123;-92
2022/07/23 04:08:47;;;;;;;7.93;4.15;;;13.80;99.90;;;;;;5054015;28;20036;-91
2022/07/23 04:11:13;;;;;;;13.13;7.07;;;13.70;99.90;;;;;;5053313;28;20040;-92
2022/07/23 04:13:39;;;;;;;9.45;6.43;;;13.80;99.90;;;;;;5070567;28;20040;-92
2022/07/23 04:16:05;;;;;;;10.52;6.45;;;13.80;99.90;;;;;;5069734;28;20586;-91
2022/07/23 04:18:30;;;;;;;13.07;4.55;;;13.90;99.90;;;;;;5070197;28;20047;-91
2022/07/23 04:20:56;;;;;;;9.52;4.43;;;13.90;99.90;;;;;;5069877;28;20032;-91
2022/07/23 04:23:21;;;;;;;9.50;6.43;;;13.80;99.90;;;;;;5070000;28;20040;-91
2022/07/23 04:25:47;;;;;;;38.50;7.57;;;13.80;99.90;;;;;;5069848;28;20165;-91
2022/07/23 04:28:13;;;;;;;39.17;5.78;;;13.80;99.90;;;;;;5069929;28;20043;-92
2022/07/23 04:30:38;;;;;;;10.18;1.83;;;13.80;99.90;;;;;;5086803;28;20575;-91
2022/07/23 04:33:06;;;;;;;11.98;3.80;;;13.70;99.90;;;;;;5069860;28;20486;-91
2022/07/23 04:35:35;;;;;;;44.15;5.95;;;13.60;99.90;;;;;;5070421;28;20531;-92
2022/07/23 04:38:02;;;;;;;7.25;1.80;;;13.60;99.90;;;;;;5070141;28;20040;-91
2022/07/23 04:40:27;;;;;;;9.60;4.68;;;13.60;99.90;;;;;;5069566;28;20512;-91
2022/07/23 04:42:53;;;;;;;8.13;3.42;;;13.60;99.90;;;;;;5086913;28;20060;-92
2022/07/23 04:45:19;;;;;;;7.00;2.60;;;13.60;99.90;;;;;;5069978;28;20127;-92
2022/07/23 04:47:44;;;;;;;6.43;2.28;;;13.50;99.90;;;;;;5053740;28;20123;-91
2022/07/23 04:50:10;;;;;;;7.43;4.05;;;13.50;99.90;;;;;;5069722;28;20037;-91
2022/07/23 04:52:36;;;;;;;9.38;4.75;;;13.50;99.90;;;;;;5069789;28;20052;-92
2022/07/23 04:55:01;;;;;;;7.90;4.65;;;13.60;99.90;;;;;;5072324;28;20044;-91
2022/07/23 04:57:27;;;;;;;7.65;2.95;;;13.60;99.90;;;;;;5073662;28;20072;-91
2022/07/23 04:59:53;;;;;;;9.15;4.35;;;13.60;99.90;;;;;;5072752;28;20040;-91
2022/07/23 05:02:18;;;;;;;9.20;5.57;;;13.50;99.90;;;;;;5073452;28;20048;-91
2022/07/23 05:04:44;;;;;;;8.90;5.47;;;13.60;99.90;;;;;;5073129;28;20466;-92
2022/07/23 05:07:09;;;;;;;7.22;3.33;;;13.70;99.90;;;;;;5089937;28;20082;-91
2022/07/23 05:09:35;;;;;;;8.95;5.30;;;13.70;99.90;;;;;;5072900;28;20137;-91
2022/07/23 05:12:01;;;;;;;6.97;3.10;;;13.70;99.90;;;;;;5056658;28;20041;-92
2022/07/23 05:14:27;;;;;;;7.70;3.80;;;13.70;99.90;;;;;;5073667;28;20127;-91
2022/07/23 05:16:53;;;;;;;7.40;2.83;;;13.80;99.90;;;;;;5056914;28;20051;-91
2022/07/23 05:19:18;;;;;;;9.52;4.63;;;13.80;99.90;;;;;;5072946;28;20044;-91
2022/07/23 05:21:44;;;;;;;8.88;3.05;;;13.80;99.90;;;;;;5074625;28;20040;-92
2022/07/23 05:24:10;;;;;;;12.20;5.57;;;13.90;99.90;;;;;;5073253;28;20037;-92
2022/07/23 05:26:35;;;;;;;8.65;5.38;;;13.90;99.90;;;;;;5073279;28;20032;-92
2022/07/23 05:29:01;;;;;;;10.13;5.65;;;14.00;99.90;;;;;;5072747;28;20076;-92
2022/07/23 05:31:26;;;;;;;9.32;5.80;;;14.10;99.90;;;;;;5056246;28;20082;-92
2022/07/23 05:33:52;;;;;;;8.77;4.22;;;14.10;99.90;;;;;;5072469;28;20044;-92
2022/07/23 05:36:18;;;;;;;11.05;6.40;;;14.10;99.90;;;;;;5073035;28;20131;-92
2022/07/23 05:38:43;;;;;;;9.38;6.22;;;14.10;99.90;;;;;;5072642;28;20131;-91
2022/07/23 05:41:09;;;;;;;9.25;4.45;;;14.20;99.90;;;;;;5072529;28;20045;-92
2022/07/23 05:43:34;;;;;;;9.90;6.03;;;14.20;99.90;;;;;;5072827;28;20060;-92
2022/07/23 05:46:00;;;;;;;11.57;6.25;;;14.30;99.90;;;;;;5072358;28;20075;-91
2022/07/23 05:48:25;;;;;;;9.65;6.47;;;14.40;99.90;;;;;;5073943;28;20068;-91
2022/07/23 05:50:51;;;;;;;11.13;6.55;;;14.40;99.90;;;;;;5054950;28;20028;-92
2022/07/23 05:53:17;;;;;;;12.60;4.93;;;14.50;99.90;;;;;;5072629;28;20086;-91
2022/07/23 05:55:42;;;;;;;11.43;6.75;;;14.50;99.90;;;;;;5072011;28;20093;-92
2022/07/23 05:58:08;;;;;;;10.38;6.30;;;14.60;99.90;;;;;;5072812;28;20076;-92
2022/07/23 06:00:34;;;;;;;11.10;7.15;;;14.60;99.90;;;;;;5072103;28;20055;-92
2022/07/23 06:03:00;;;;;;;12.23;6.47;;;14.70;99.90;;;;;;5055868;28;20033;-92
2022/07/23 06:05:26;;;;;;;11.02;6.63;;;14.80;99.90;;;;;;5071495;28;20561;-92
2022/07/23 06:07:52;;;;;;;11.95;4.80;;;14.90;99.90;;;;;;5055796;28;20174;-92
2022/07/23 06:10:18;;;;;;;10.43;6.22;;;14.90;99.90;;;;;;5072123;28;20047;-92
2022/07/23 06:12:44;;;;;;;11.30;5.18;;;15.00;99.90;;;;;;5072598;28;20040;-92
2022/07/23 06:15:10;;;;;;;10.15;6.20;;;15.00;99.90;;;;;;5071999;28;20121;-92
2022/07/23 06:17:38;;;;;;;10.32;4.75;;;15.10;99.90;;;;;;5071505;28;20048;-92
2022/07/23 06:20:05;;;;;;;9.55;5.30;;;15.10;99.90;;;;;;5071692;28;20052;-92
2022/07/23 06:22:31;;;;;;;10.65;4.63;;;15.20;99.90;;;;;;5071945;28;20048;-92
2022/07/23 06:24:56;;;;;;;8.30;4.32;;;15.30;99.90;;;;;;5073569;28;20116;-92
2022/07/23 06:27:22;;;;;;;8.70;3.80;;;15.40;99.90;;;;;;5072091;28;20483;-92
2022/07/23 06:29:48;;;;;;;9.73;3.67;;;15.40;99.90;;;;;;5071672;28;20036;-92
2022/07/23 06:32:13;;;;;;;10.82;4.32;;;15.40;99.90;;;;;;5089083;28;20055;-91
2022/07/23 06:34:39;;;;;;;9.60;3.30;;;15.50;99.90;;;;;;5072358;28;20138;-92
2022/07/23 06:37:05;;;;;;;7.32;3.08;;;15.60;99.90;;;;;;5071617;28;20505;-91
2022/07/23 06:39:30;;;;;;;9.77;2.92;;;15.70;99.90;;;;;;5077831;28;20085;-92
2022/07/23 06:41:56;;;;;;;8.13;2.30;;;15.70;99.90;;;;;;5093150;28;20033;-91
2022/07/23 06:44:21;;;;;;;9.15;3.03;;;15.80;99.90;;;;;;5086083;28;20034;-90
2022/07/23 06:46:47;;;;;;;6.55;2.90;;;15.80;99.90;;;;;;5090372;28;20052;-91
2022/07/23 06:49:13;;;;;;;7.10;2.92;;;15.90;99.90;;;;;;5084279;28;20029;-92
2022/07/23 06:51:38;;;;;;;7.60;3.53;;;16.00;99.90;;;;;;5078759;28;20123;-92
2022/07/23 06:54:04;;;;;;;7.30;2.58;;;16.10;99.90;;;;;;5072120;28;20036;-92
2022/07/23 06:56:29;;;;;;;7.30;3.08;;;16.10;99.90;;;;;;5072613;28;20459;-93
2022/07/23 06:58:55;;;;;;;7.32;3.00;;;16.20;99.90;;;;;;5072569;28;20044;-92
2022/07/23 07:01:21;;;;;;;8.40;3.92;;;16.20;99.90;;;;;;5072221;28;20033;-92
2022/07/23 07:03:47;;;;;;;8.85;3.90;;;16.30;99.90;;;;;;5072073;28;20490;-92
2022/07/23 07:06:12;;;;;;;8.52;3.33;;;16.40;99.90;;;;;;5071878;28;20072;-93
2022/07/23 07:08:38;;;;;;;10.52;3.65;;;16.40;99.90;;;;;;5071912;28;20033;-92
2022/07/23 07:11:03;;;;;;;9.80;3.33;;;16.50;99.90;;;;;;5071414;28;20029;-92
2022/07/23 07:13:29;;;;;;;8.18;2.90;;;16.60;99.90;;;;;;5071016;28;20742;-91
2022/07/23 07:15:55;;;;;;;7.38;2.53;;;16.60;99.90;;;;;;5070592;28;20094;-92
2022/07/23 07:18:20;;;;;;;6.38;2.17;;;16.70;99.90;;;;;;5070276;28;20414;-92
2022/07/23 07:20:46;;;;;;;5.18;2.28;;;16.80;99.90;;;;;;5070864;28;20076;-91
2022/07/23 07:23:12;;;;;;;6.22;2.40;;;16.80;99.90;;;;;;5070479;28;20032;-91
2022/07/23 07:25:38;;;;;;;8.43;2.80;;;16.90;99.90;;;;;;5053840;28;20040;-91
2022/07/23 07:28:04;;;;;;;4.85;2.08;;;17.00;99.90;;;;;;5071258;28;20048;-92
2022/07/23 07:30:29;;;;;;;7.28;2.00;;;17.00;99.90;;;;;;5070215;28;20048;-92
2022/07/23 07:32:55;;;;;;;6.88;2.25;;;17.10;99.90;;;;;;5071290;28;20085;-91
2022/07/23 07:35:21;;;;;;;5.80;2.10;;;17.20;99.90;;;;;;5070648;28;20516;-92
2022/07/23 07:37:46;;;;;;;6.53;2.00;;;17.20;99.90;;;;;;5070965;28;20059;-92
2022/07/23 07:40:12;;;;;;;6.90;1.75;;;17.20;99.90;;;;;;5070112;28;20082;-92
2022/07/23 07:42:48;;;;;;;7.28;1.70;;;17.30;99.90;;;;;;5070680;28;20036;-92
2022/07/23 07:45:15;;;;;;;6.18;1.58;;;17.40;99.90;;;;;;5070483;28;20049;-92
2022/07/23 07:47:40;;;;;;;7.32;1.77;;;17.40;99.90;;;;;;5070506;28;20044;-92
2022/07/23 07:50:07;;;;;;;5.85;1.77;;;17.50;99.90;;;;;;5070937;28;20037;-92
2022/07/23 07:52:37;;;;;;;6.35;1.70;;;17.60;99.90;;;;;;5070798;28;20409;-92
2022/07/23 07:55:03;;;;;;;6.60;1.98;;;17.60;99.90;;;;;;5053138;28;20044;-93
2022/07/23 07:57:29;;;;;;;5.68;1.40;;;17.60;99.90;;;;;;5069027;28;20047;-93
2022/07/23 07:59:55;;;;;;;4.88;1.67;;;17.70;99.90;;;;;;5070245;28;20044;-92
2022/07/23 08:02:21;;;;;;;8.02;1.98;;;17.70;99.90;;;;;;5070469;28;20413;-93
2022/07/23 08:04:46;;;;;;;5.85;1.50;;;17.80;99.90;;;;;;5070420;28;20037;-93
2022/07/23 08:07:12;;;;;;;8.60;1.92;;;17.90;99.90;;;;;;5087578;28;20044;-91
2022/07/23 08:09:38;;;;;;;4.97;1.70;;;18.00;99.90;;;;;;5061059;28;20090;-93
2022/07/23 08:12:04;;;;;;;4.90;1.40;;;18.10;99.90;;;;;;5078581;28;20110;-91
2022/07/23 08:14:29;;;;;;;5.32;1.90;;;18.20;99.90;;;;;;5078748;28;20049;-91
2022/07/23 08:16:55;;;;;;;6.07;1.52;;;18.30;99.90;;;;;;5093203;28;20037;-91
2022/07/23 08:19:20;;;;;;;4.22;1.52;;;18.40;99.90;;;;;;5070708;28;20043;-91
2022/07/23 08:21:46;;;;;;;4.55;1.40;;;18.50;99.90;;;;;;5056400;28;20113;-92
2022/07/23 08:24:11;;;;;;;4.15;1.50;;;18.60;99.90;;;;;;5070412;28;20044;-92
2022/07/23 08:26:37;;;;;;;4.05;1.05;;;18.70;99.90;;;;;;5070299;28;20082;-91
2022/07/23 08:29:02;;;;;;;6.70;1.40;;;18.70;99.90;;;;;;5071047;28;20410;-91
2022/07/23 08:31:28;;;;;;;6.88;1.80;;;18.80;99.90;;;;;;5058124;28;20170;-92
2022/07/23 08:33:54;;;;;;;4.07;1.33;;;18.80;99.90;;;;;;5074467;28;20032;-91
2022/07/23 08:36:20;;;;;;;4.05;1.20;;;18.80;99.90;;;;;;5074014;28;20040;-91
2022/07/23 08:38:46;;;;;;;4.88;1.35;;;18.80;99.90;;;;;;5074000;28;20123;-92
2022/07/23 08:41:11;;;;;;;5.45;1.30;;;18.70;99.90;;;;;;5083329;28;20100;-92
2022/07/23 08:43:37;;;;;;;5.93;1.38;;;18.70;99.90;;;;;;5084218;28;20032;-92
2022/07/23 08:46:03;;;;;;;4.35;1.20;;;18.80;99.90;;;;;;5068717;28;20079;-92
2022/07/23 08:48:32;;;;;;;4.70;1.48;;;18.90;99.90;;;;;;5105445;28;20117;-92
2022/07/23 08:51:00;;;;;;;6.35;2.15;;;19.00;99.90;;;;;;5068579;28;20036;-92
2022/07/23 08:53:28;;;;;;;4.30;1.38;;;19.10;99.90;;;;;;5092255;28;20098;-93
2022/07/23 08:55:59;;;;;;;5.63;1.10;;;19.20;99.90;;;;;;5056904;28;20046;-93
2022/07/23 08:58:25;;;;;;;5.28;1.35;;;19.30;99.90;;;;;;5073899;28;20106;-92
2022/07/23 09:00:51;;;;;;;2.97;1.20;;;19.40;99.90;;;;;;5076120;28;20092;-92
2022/07/23 09:03:22;;;;;;;4.32;1.00;;;19.40;99.90;;;;;;5090528;28;20040;-92
2022/07/23 09:05:50;;;;;;;2.95;1.10;;;19.40;99.90;;;;;;5075282;28;20044;-92
2022/07/23 09:08:19;;;;;;;4.07;1.02;;;19.50;99.90;;;;;;5111037;28;20044;-92
2022/07/23 09:10:56;;;;;;;3.92;1.00;;;19.50;99.90;;;;;;5110780;28;20421;-92
2022/07/23 09:13:28;;;;;;;4.47;1.10;;;19.40;99.90;;;;;;5111061;28;20071;-91
2022/07/23 09:15:58;;;;;;;5.60;1.30;;;19.40;99.90;;;;;;5110551;28;20040;-92
2022/07/23 09:18:51;;;;;;;2.85;0.93;;;19.40;99.90;;;;;;5093833;28;20122;-91
2022/07/23 09:21:19;;;;;;;3.92;1.27;;;19.40;99.90;;;;;;5035224;28;20191;-91
2022/07/23 09:23:52;;;;;;;2.90;1.13;;;19.50;99.90;;;;;;5052300;28;20049;-91
2022/07/23 09:26:21;;;;;;;4.85;1.30;;;19.60;99.90;;;;;;5066938;28;20737;-91
2022/07/23 09:28:55;;;;;;;5.97;1.63;;;19.80;99.90;;;;;;5069054;28;20029;-91
2022/07/23 09:31:22;;;;;;;4.60;1.38;;;19.80;99.90;;;;;;5051842;28;20571;-90
2022/07/23 09:33:48;;;;;;;4.25;1.38;;;19.80;99.90;;;;;;5068843;28;20037;-91
2022/07/23 09:36:13;;;;;;;3.60;1.17;;;19.90;99.90;;;;;;5052415;28;20552;-91
2022/07/23 09:38:51;;;;;;;3.55;1.15;;;20.00;99.90;;;;;;5018868;28;20548;-91
2022/07/23 09:41:17;;;;;;;5.15;1.20;;;20.10;99.90;;;;;;5033864;28;20037;-91
2022/07/23 09:43:42;;;;;;;5.60;1.50;;;20.20;99.90;;;;;;5018745;28;20036;-92
2022/07/23 09:46:23;;;;;;;5.85;1.50;;;20.20;99.90;;;;;;5035239;28;20056;-91
2022/07/23 09:48:49;;;;;;;4.03;1.25;;;20.10;99.90;;;;;;5051901;28;20499;-91
2022/07/23 09:51:18;;;;;;;4.82;1.42;;;20.10;99.90;;;;;;5067565;28;20048;-91
2022/07/23 09:53:44;;;;;;;3.85;1.20;;;20.00;99.90;;;;;;5065627;28;20072;-92
2022/07/23 09:56:13;;;;;;;5.65;1.38;;;19.90;99.90;;;;;;5034348;28;20127;-91
2022/07/23 09:58:49;;;;;;;6.03;1.35;;;19.80;99.90;;;;;;5062683;28;20124;-91
2022/07/23 10:01:15;;;;;;;7.25;1.52;;;19.80;99.90;;;;;;5098795;28;20040;-91
2022/07/23 10:03:42;;;;;;;4.15;1.25;;;19.90;99.90;;;;;;5081761;28;20047;-91
2022/07/23 10:06:13;;;;;;;3.42;1.30;;;20.00;99.90;;;;;;5072631;28;20091;-91
2022/07/23 10:08:41;;;;;;;4.63;1.40;;;20.10;99.90;;;;;;5075802;28;20550;-91
2022/07/23 10:11:09;;;;;;;4.68;1.30;;;20.20;99.90;;;;;;5109593;28;20043;-91
2022/07/23 10:16:19;;;;;;;4.35;1.30;;;20.10;99.90;;;;;;5092783;28;20052;-91
2022/07/23 10:18:46;;;;;;;4.78;1.10;;;20.00;99.90;;;;;;5109997;28;20409;-91
2022/07/23 10:21:33;;;;;;;3.90;1.30;;;20.00;99.90;;;;;;5092676;28;20039;-91
2022/07/23 10:24:23;;;;;;;3.33;1.08;;;20.00;99.90;;;;;;5058885;28;20515;-91
2022/07/23 10:27:02;;;;;;;3.40;1.17;;;20.20;99.90;;;;;;5092541;28;20408;-91
2022/07/23 10:29:51;;;;;;;2.20;0.93;;;20.40;99.90;;;;;;5109116;28;20039;-90
2022/07/23 10:32:31;;;;;;;2.95;1.15;;;20.50;99.90;;;;;;5109885;28;20294;-91
2022/07/23 10:35:10;;;;;;;2.33;0.98;;;20.60;99.90;;;;;;5092523;28;20123;-91
2022/07/23 10:37:45;;;;;;;6.03;1.33;;;20.50;99.90;;;;;;5075379;28;20040;-91
2022/07/23 10:40:23;;;;;;;4.43;1.10;;;20.60;99.90;;;;;;5109009;28;20405;-91
2022/07/23 10:42:55;;;;;;;3.70;1.25;;;20.60;99.90;;;;;;5108968;28;20036;-91
2022/07/23 10:45:28;;;;;;;3.33;1.30;;;20.50;99.90;;;;;;5109391;28;20048;-91
2022/07/23 10:47:55;;;;;;;3.03;1.00;;;20.50;99.90;;;;;;5075087;28;20071;-91
2022/07/23 10:50:31;;;;;;;3.08;1.10;;;20.60;99.90;;;;;;5104587;28;20036;-91
2022/07/23 10:53:08;;;;;;;3.92;1.35;;;20.70;99.90;;;;;;5082084;28;20070;-91
2022/07/23 10:55:34;;;;;;;2.45;1.00;;;20.80;99.90;;;;;;5082096;28;20102;-91
2022/07/23 10:58:02;;;;;;;4.35;1.10;;;20.90;99.90;;;;;;5080302;28;20405;-91
2022/07/23 11:00:29;;;;;;;3.75;1.15;;;21.00;99.90;;;;;;5080846;28;20409;-91
2022/07/23 11:03:00;;;;;;;2.63;1.15;;;21.10;99.90;;;;;;5079327;28;20051;-90
2022/07/23 11:05:43;;;;;;;2.60;0.95;;;21.20;99.90;;;;;;5079537;28;20040;-91
2022/07/23 11:08:10;;;;;;;3.10;1.20;;;21.20;99.90;;;;;;5078786;28;20040;-92
2022/07/23 11:10:51;;;;;;;4.20;1.20;;;21.30;98.40;;;;;;5095107;28;20047;-91
2022/07/23 11:13:32;;;;;;;2.95;1.02;;;21.30;99.90;;;;;;5079842;28;20036;-91
2022/07/23 11:16:01;;;;;;;3.45;1.20;;;21.40;99.90;;;;;;5082677;28;20490;-92
2022/07/23 11:18:47;;;;;;;4.43;1.35;;;21.40;99.90;;;;;;5099818;28;20040;-92
2022/07/23 11:21:23;;;;;;;5.32;1.30;;;21.60;99.80;;;;;;5072450;28;20382;-92
2022/07/23 11:23:58;;;;;;;4.28;1.30;;;21.70;99.90;;;;;;5089791;28;20055;-92
2022/07/23 11:26:42;;;;;;;2.13;1.00;;;21.70;97.60;;;;;;5089315;28;20561;-92
2022/07/23 11:29:27;;;;;;;4.10;1.27;;;21.70;99.90;;;;;;5098157;28;20028;-92
2022/07/23 11:31:54;;;;;;;3.28;1.38;;;21.80;99.90;;;;;;5072630;28;20039;-92
2022/07/23 11:34:39;;;;;;;3.42;1.30;;;21.90;99.70;;;;;;5063947;28;20074;-92
2022/07/23 11:37:09;;;;;;;4.00;1.23;;;22.10;99.90;;;;;;5081702;28;20032;-92
2022/07/23 11:39:35;;;;;;;5.75;1.48;;;22.20;99.90;;;;;;5081726;28;20127;-92
2022/07/23 11:42:06;;;;;;;3.85;1.40;;;22.30;99.90;;;;;;5080658;28;20076;-92
2022/07/23 11:44:32;;;;;;;3.53;1.33;;;22.30;97.50;;;;;;5095905;28;20045;-91
2022/07/23 11:47:00;;;;;;;3.28;1.20;;;22.30;97.20;;;;;;5080569;28;20063;-92
2022/07/23 11:49:26;;;;;;;3.85;1.20;;;22.20;99.30;;;;;;5079095;28;20520;-92
2022/07/23 11:52:09;;;;;;;4.68;1.58;;;22.30;99.10;;;;;;5082820;28;20090;-92
2022/07/23 11:54:46;;;;;;;3.97;1.40;;;22.50;99.90;;;;;;5082232;28;20092;-91
2022/07/23 11:57:12;;;;;;;5.25;1.40;;;22.70;99.90;;;;;;5081860;28;20036;-91
2022/07/23 11:59:39;;;;;;;4.57;1.42;;;22.80;98.20;;;;;;5070546;28;20043;-92
2022/07/23 12:02:06;;;;;;;5.03;1.50;;;22.80;99.30;;;;;;5070729;28;20119;-92
2022/07/23 12:04:38;;;;;;;4.32;1.40;;;22.90;99.90;;;;;;5068929;28;20115;-92
2022/07/23 12:07:04;;;;;;;3.78;1.52;;;22.90;98.60;;;;;;5070414;28;20506;-92
2022/07/23 12:09:29;;;;;;;5.47;1.55;;;23.00;98.90;;;;;;5070345;28;20055;-92
2022/07/23 12:12:00;;;;;;;4.40;1.60;;;22.90;97.70;;;;;;5070720;28;20494;-92
2022/07/23 12:14:25;;;;;;;5.38;1.75;;;23.10;99.20;;;;;;5070499;28;20119;-92
2022/07/23 12:17:08;;;;;;;4.68;1.70;;;23.10;97.50;;;;;;5071859;28;20063;-92
2022/07/23 12:19:34;;;;;;;4.25;1.50;;;23.00;96.00;;;;;;5070265;28;20401;-92
2022/07/23 12:22:00;;;;;;;4.75;1.65;;;23.00;96.00;;;;;;5070398;28;20033;-92
2022/07/23 12:24:25;;;;;;;4.30;1.60;;;23.10;96.90;;;;;;5070564;28;20136;-92
2022/07/23 12:27:13;;;;;;;4.90;1.73;;;23.30;97.20;;;;;;5072208;28;20478;-92
2022/07/23 12:29:39;;;;;;;5.05;1.95;;;23.40;99.90;;;;;;5070139;28;20037;-92
2022/07/23 12:32:26;;;;;;;6.68;1.80;;;23.60;98.40;;;;;;5077571;28;20043;-92
2022/07/23 12:35:06;;;;;;;3.85;1.55;;;23.60;98.70;;;;;;5090541;28;20040;-92
2022/07/23 12:37:43;;;;;;;4.55;1.50;;;23.80;98.90;;;;;;5090290;28;20043;-92
2022/07/23 12:40:19;;;;;;;4.32;1.75;;;24.00;98.10;;;;;;5090019;28;20078;-92
2022/07/23 12:42:47;;;;;;;4.97;1.60;;;24.00;94.40;;;;;;5108050;28;20504;-92
2022/07/23 12:45:13;;;;;;;4.97;1.83;;;24.10;96.70;;;;;;5107045;28;20123;-93
2022/07/23 12:48:04;;;;;;;4.35;1.75;;;24.10;97.70;;;;;;5057318;28;20098;-92
2022/07/23 12:50:58;;;;;;;5.13;1.88;;;24.10;92.50;;;;;;5070634;28;20049;-92